Airfield :
LOGIN :

Register | Disclaimer

   EN    FR    IT 

 










Legend :    VFR   Marginal VFR   IFR   Intensive IFR   Very Intensive IFR
Visi :
Ceiling :
>= 8 km
>= 3000ft
5 to 8 km
1000 to 3000 ft
1500m to 5 km
500 to 1000 ft
800 to 1500m
200 to 500 ft
< 800m
< 200 ft
Symbols :   Thunderstorms  Fog  Heavy snow  Heavy precipitations  Wind > 20 kt
SIGMETs :     Misc.  Thunderstorms  Icing  Turbulence  Mountain Waves  Volcanic Ashes







- Airport Elevation : 203 ft
- IATA code : XMJ
- Download approach charts


LFBM - Mont-De-Marsan

CURRENT METAR :
  • 250430Z AUTO VRB02KT 9999 -RA FEW043/// SCT070/// OVC082/// ///TCU 10/10 Q1003 BECMG SCT010 BKN030

EXPIRED METARs :
  • 250400Z AUTO 03005KT 9999 -RA FEW016/// BKN041/// BKN049/// ///CB 10/09 Q1002 TEMPO RA BECMG 26010KT SCT010 BKN030
  • 250330Z AUTO 34004KT 280V030 5000 RA BR FEW007/// SCT016/// BKN029/// ///CB 10/09 Q1003 BECMG NSW NSC
  • 250300Z AUTO 30005KT 230V340 9999 -RA FEW006/// BKN016/// BKN024/// ///CB 11/11 Q1002 BECMG RA FEW020 OVC070
  • 250230Z AUTO VRB03KT 7000 +RA FEW011/// BKN019/// BKN025/// ///CB 12/11 Q1002 BECMG FEW020 OVC070
  • 250200Z AUTO 32004KT 8000 RA FEW017/// BKN029/// BKN038/// ///CB 12/11 Q1001 BECMG 26010KT NSW NSC

TAF AMD TAF LFBM
Valid from the 25 at 03:00 until the 26 at 03:00 UTC


250339Z 2503/2603 26010KT 9999 RA FEW006 BKN030 BKN050
BECMG 2505/2508 NSW SCT010 BKN030
BECMG 2509/2512 SCT020TCU
No reported NOTAMs for that airfield.
2 SIGMETs reported for the Bordeaux FIR (LFBB) :
 
Severe mountain waves
LFBB SIGMET 2 VALID 250300/250700 LFPW
LFBB BORDEAUX FIR/UIR SEV MTW FCST WI N4245 E00230 - N4215 E00230 - N4230 E00045 - N4300 E00100 - N4245 E00230 SFC/FL370 STNR WKN=
Severe turbulence
LFBB SIGMET 1 VALID 250300/250700 LFPW
LFBB BORDEAUX FIR/UIR SEV TURB FCST WI N4630 E00300 - N4315 E00230 - N4330 E00130 - N4630 E00300 SFC/FL080 STNR WKN=



MET'MAP, your aeronautical weather chart ! - Copyright ORBIFLY December 2007 - Disclaimer

ORBIFLY MET'MAP TEAM :

Programming & Development : Alexandra Zaïnal
Concept & Development : Baudouin d'Aumeries
Co-Development & Prog : Marc-Olivier Méhu
Technical & hardware support : Manuel Goepfert

Contact : metmap@orbifly.com




SOURCES & CREDITS :

   NOAA